createdAt,value
2022-09-09T00:00:01.655Z,93.13
2022-09-09T00:05:01.588Z,93.67
2022-09-09T00:10:02.093Z,94.32
2022-09-09T00:15:01.650Z,94.92
2022-09-09T00:20:01.603Z,95.35
2022-09-09T00:25:01.191Z,95.85
2022-09-09T00:30:01.879Z,96.15
2022-09-09T00:35:01.428Z,96.03
2022-09-09T00:40:01.336Z,96.01
2022-09-09T00:45:01.611Z,95.72
2022-09-09T00:50:01.580Z,95.63
2022-09-09T00:55:01.221Z,95.73
2022-09-09T01:00:02.021Z,95.83
2022-09-09T01:05:01.996Z,95.73
2022-09-09T01:10:01.932Z,95.62
2022-09-09T01:15:01.643Z,95.51
2022-09-09T01:20:02.023Z,95.44
2022-09-09T01:25:02.020Z,95.37
2022-09-09T01:30:02.020Z,95.39
2022-09-09T01:35:01.279Z,95.19
2022-09-09T01:40:02.279Z,94.85
2022-09-09T01:45:01.275Z,94.43
2022-09-09T01:50:01.733Z,93.83
2022-09-09T01:55:01.215Z,93.45
2022-09-09T02:00:02.027Z,93.21
2022-09-09T02:05:01.873Z,93.22
2022-09-09T02:10:01.244Z,93.45
2022-09-09T02:15:01.707Z,93.62
2022-09-09T02:20:01.701Z,93.22
2022-09-09T02:25:02.151Z,93.22
2022-09-09T02:30:01.879Z,92.91
2022-09-09T02:35:02.031Z,92.69
2022-09-09T02:40:01.841Z,92.12
2022-09-09T02:45:01.999Z,91.77
2022-09-09T02:50:01.699Z,91.62
2022-09-09T02:55:01.170Z,91.6
2022-09-09T03:00:01.330Z,91.46
2022-09-09T03:05:02.078Z,91.75
2022-09-09T03:10:01.900Z,92
2022-09-09T03:15:01.229Z,92.25
2022-09-09T03:20:01.663Z,92.51
2022-09-09T03:25:01.199Z,92.62
2022-09-09T03:30:01.582Z,93.15
2022-09-09T03:35:01.603Z,93.83
2022-09-09T03:40:01.310Z,94.3
2022-09-09T03:45:01.729Z,94.41
2022-09-09T03:50:01.473Z,94.67
2022-09-09T03:55:02.096Z,94.78
2022-09-09T04:00:01.435Z,94.96
2022-09-09T04:05:01.410Z,95.02
2022-09-09T04:10:01.619Z,94.89
2022-09-09T04:15:01.989Z,94.51
2022-09-09T04:20:01.335Z,94.53
2022-09-09T04:25:01.311Z,94.55
2022-09-09T04:30:01.864Z,94.39
2022-09-09T04:35:02.108Z,94.22
2022-09-09T04:40:01.978Z,93.58
2022-09-09T04:45:01.800Z,93.37
2022-09-09T04:50:01.198Z,93.22
2022-09-09T04:55:01.989Z,93.22
2022-09-09T05:00:01.421Z,93.27
2022-09-09T05:05:01.456Z,93.48
2022-09-09T05:10:01.507Z,93.32
2022-09-09T05:15:01.639Z,93.01
2022-09-09T05:20:01.482Z,92.72
2022-09-09T05:25:01.327Z,92.55
2022-09-09T05:30:01.550Z,92.27
2022-09-09T05:35:01.661Z,92.16
2022-09-09T05:40:01.882Z,92.06
2022-09-09T05:45:01.859Z,91.71
2022-09-09T05:50:01.368Z,91.32
2022-09-09T05:55:01.381Z,90.94
2022-09-09T06:00:01.496Z,90.64
2022-09-09T06:05:01.774Z,90.71
2022-09-09T06:10:01.396Z,89.89
2022-09-09T06:15:01.406Z,89.37
2022-09-09T06:20:01.693Z,88.77
2022-09-09T06:25:01.303Z,89.13
2022-09-09T06:30:01.810Z,88.5
2022-09-09T06:35:02.106Z,88.11
2022-09-09T06:40:01.252Z,86.98
2022-09-09T06:45:01.321Z,86.53
2022-09-09T06:50:02.260Z,85.8
2022-09-09T06:55:02.134Z,85.91
2022-09-09T07:00:01.630Z,83.73
2022-09-09T07:05:02.099Z,83.49
2022-09-09T07:10:01.489Z,82.94
2022-09-09T07:15:01.214Z,82.31
2022-09-09T07:20:01.987Z,80.79
2022-09-09T07:25:01.289Z,81.73
2022-09-09T07:30:02.072Z,79.04
2022-09-09T07:35:02.180Z,77.97
2022-09-09T07:40:02.093Z,79.71
2022-09-09T07:45:02.006Z,79.14
2022-09-09T07:50:01.407Z,80.62
2022-09-09T07:55:01.890Z,80.28
2022-09-09T08:00:01.928Z,81.54
2022-09-09T08:05:01.389Z,81.18
2022-09-09T08:10:01.668Z,80.71
2022-09-09T08:15:01.952Z,78.19
2022-09-09T08:20:01.854Z,79.02
2022-09-09T08:25:01.645Z,79.06
2022-09-09T08:30:01.925Z,78.2
2022-09-09T08:35:02.131Z,77.8
2022-09-09T08:40:01.747Z,77.79
2022-09-09T08:45:01.568Z,76.51
2022-09-09T08:50:02.124Z,75.3
2022-09-09T08:55:01.421Z,73.31
2022-09-09T09:00:02.207Z,73.81
2022-09-09T09:05:01.957Z,73.49
2022-09-09T09:10:01.901Z,72.96
2022-09-09T09:15:01.305Z,71.49
2022-09-09T09:20:01.920Z,72.77
2022-09-09T09:25:01.895Z,73.14
2022-09-09T09:30:28.559Z,71.98
2022-09-09T09:35:02.085Z,71.86
2022-09-09T09:40:06.873Z,73.78
2022-09-09T09:45:01.821Z,74.35
2022-09-09T09:50:01.912Z,71.87
2022-09-09T09:55:07.275Z,72.33
2022-09-09T10:00:01.772Z,72.72
2022-09-09T10:05:01.847Z,74.79
2022-09-09T10:10:01.692Z,70.92
2022-09-09T10:15:02.071Z,72.53
2022-09-09T10:20:01.539Z,71.4
2022-09-09T10:25:02.339Z,72.13
2022-09-09T10:30:01.575Z,70.62
2022-09-09T10:35:02.027Z,70.69
2022-09-09T10:40:01.460Z,71.54
2022-09-09T10:45:02.164Z,71.94
2022-09-09T10:50:01.535Z,70.85
2022-09-09T10:55:01.403Z,74.21
2022-09-09T11:00:02.131Z,73.34
2022-09-09T11:05:01.798Z,73.07
2022-09-09T11:10:01.520Z,70.6
2022-09-09T11:15:01.852Z,71.75
2022-09-09T11:20:01.624Z,68.49
2022-09-09T11:25:01.833Z,66.77
2022-09-09T11:30:01.459Z,66.83
2022-09-09T11:35:01.876Z,67.15
2022-09-09T11:40:01.936Z,67.51
2022-09-09T11:45:01.622Z,67.99
2022-09-09T11:50:01.216Z,66.38
2022-09-09T11:55:01.539Z,66.18
2022-09-09T12:00:01.331Z,66.2
2022-09-09T12:05:01.687Z,66.8
2022-09-09T12:10:01.546Z,67.22
2022-09-09T12:15:01.824Z,68.48
2022-09-09T12:20:01.876Z,66.48
2022-09-09T12:25:01.232Z,66.82
2022-09-09T12:30:01.697Z,67.12
2022-09-09T12:35:01.652Z,69.82
2022-09-09T12:40:01.222Z,69.65
2022-09-09T12:45:01.789Z,70.34
2022-09-09T12:50:02.115Z,67.44
2022-09-09T12:55:01.769Z,67.41
2022-09-09T13:00:01.425Z,70.02
2022-09-09T13:05:01.410Z,69.86
2022-09-09T13:10:01.675Z,68.28
2022-09-09T13:15:01.428Z,68.28
2022-09-09T13:20:02.140Z,70.44
2022-09-09T13:25:01.589Z,73.56
2022-09-09T13:30:01.894Z,74.69
2022-09-09T13:35:01.710Z,72.08
2022-09-09T13:40:01.346Z,71.41
2022-09-09T13:45:01.699Z,72.5
2022-09-09T13:50:01.655Z,73.48
2022-09-09T13:55:01.499Z,73.56
2022-09-09T14:00:05.050Z,73.7
2022-09-09T14:05:01.407Z,72.73
2022-09-09T14:10:01.506Z,74.13
2022-09-09T14:15:01.327Z,72.22
2022-09-09T14:20:01.911Z,74.9
2022-09-09T14:25:01.643Z,73.27
2022-09-09T14:30:01.918Z,71.37
2022-09-09T14:35:01.739Z,70.45
2022-09-09T14:40:01.517Z,71.79
2022-09-09T14:45:01.566Z,72.75
2022-09-09T14:50:01.939Z,71.48
2022-09-09T14:55:01.441Z,74.07
2022-09-09T15:00:01.221Z,71.02
2022-09-09T15:05:01.485Z,74.35
2022-09-09T15:10:01.588Z,74.42
2022-09-09T15:15:01.627Z,75.23
2022-09-09T15:20:01.329Z,76.77
2022-09-09T15:25:02.128Z,78.35
2022-09-09T15:30:01.773Z,76.42
2022-09-09T15:35:02.144Z,76.16
2022-09-09T15:40:01.491Z,77.12
2022-09-09T15:45:02.251Z,81.28
2022-09-09T15:50:01.600Z,83.34
2022-09-09T15:55:01.249Z,83.63
2022-09-09T16:00:01.215Z,83.28
2022-09-09T16:05:02.078Z,83.82
2022-09-09T16:10:01.470Z,84.3
2022-09-09T16:15:01.956Z,81.89
2022-09-09T16:20:01.244Z,81.22
2022-09-09T16:25:02.085Z,81.22
2022-09-09T16:30:01.793Z,78.76
2022-09-09T16:35:01.671Z,79.38
2022-09-09T16:40:01.296Z,79.94
2022-09-09T16:45:01.841Z,81.15
2022-09-09T16:50:01.196Z,81.64
2022-09-09T16:55:01.478Z,83.95
2022-09-09T17:00:01.963Z,83.64
2022-09-09T17:05:01.414Z,84.26
2022-09-09T17:10:01.318Z,84.34
2022-09-09T17:15:01.647Z,85.24
2022-09-09T17:20:01.215Z,85.7
2022-09-09T17:25:01.624Z,86.43
2022-09-09T17:30:01.888Z,88.27
2022-09-09T17:35:01.718Z,89.01
2022-09-09T17:40:01.397Z,89.43
2022-09-09T17:45:01.172Z,89.13
2022-09-09T17:50:01.788Z,88.93
2022-09-09T17:55:01.670Z,88.74
2022-09-09T18:00:01.530Z,88.71
2022-09-09T18:05:01.231Z,89.11
2022-09-09T18:10:02.018Z,88.71
2022-09-09T18:15:04.097Z,88.59
2022-09-09T18:20:01.367Z,88.46
2022-09-09T18:25:01.314Z,88.54
2022-09-09T18:30:01.240Z,88.1
2022-09-09T18:35:01.914Z,88.4
2022-09-09T18:40:02.090Z,88.82
2022-09-09T18:45:01.847Z,89.14
2022-09-09T18:50:01.765Z,89.14
2022-09-09T19:00:01.907Z,90.01
2022-09-09T19:05:01.341Z,90.49
2022-09-09T19:10:01.572Z,90.7
2022-09-09T19:15:01.172Z,91.03
2022-09-09T19:20:01.907Z,91.45
2022-09-09T19:25:01.902Z,91.74
2022-09-09T19:30:01.560Z,91.86
2022-09-09T19:35:01.512Z,91.93
2022-09-09T19:40:02.007Z,91.99
2022-09-09T19:45:02.034Z,92.15
2022-09-09T19:50:01.932Z,92.47
2022-09-09T19:55:01.845Z,92.81
2022-09-09T20:00:01.835Z,93.18
2022-09-09T20:05:01.432Z,93.32
2022-09-09T20:10:01.535Z,93.33
2022-09-09T20:15:01.548Z,93.16
2022-09-09T20:20:01.341Z,92.66
2022-09-09T20:25:02.009Z,92.56
2022-09-09T20:30:01.957Z,92.38
2022-09-09T20:35:01.602Z,92.14
2022-09-09T20:40:01.472Z,91.93
2022-09-09T20:45:01.710Z,91.95
2022-09-09T20:50:01.875Z,91.76
2022-09-09T20:55:01.176Z,91.68
2022-09-09T21:00:01.897Z,91.84
2022-09-09T21:05:01.660Z,91.97
2022-09-09T21:10:01.421Z,91.81
2022-09-09T21:15:01.785Z,91.75
2022-09-09T21:20:01.687Z,91.48
2022-09-09T21:25:01.640Z,91.21
2022-09-09T21:30:01.207Z,90.67
2022-09-09T21:35:01.714Z,90.32
2022-09-09T21:40:01.783Z,90.14
2022-09-09T21:45:01.380Z,90.08
2022-09-09T21:50:01.321Z,90.43
2022-09-09T21:55:01.327Z,90.77
2022-09-09T22:00:02.244Z,91.47
2022-09-09T22:05:01.923Z,92.09
2022-09-09T22:10:01.161Z,92.19
2022-09-09T22:15:02.066Z,92.47
2022-09-09T22:20:02.020Z,92.38
2022-09-09T22:25:02.166Z,92.77
2022-09-09T22:30:01.482Z,92.9
2022-09-09T22:35:01.937Z,93.19
2022-09-09T22:40:02.010Z,93.11
2022-09-09T22:45:01.176Z,93.54
2022-09-09T22:50:01.588Z,93.25
2022-09-09T22:55:01.647Z,93.59
2022-09-09T23:00:01.547Z,93.88
2022-09-09T23:05:01.452Z,93.73
2022-09-09T23:10:01.281Z,94.12
2022-09-09T23:15:02.143Z,94.48
2022-09-09T23:20:01.396Z,94.44
2022-09-09T23:25:01.827Z,94.29
2022-09-09T23:30:01.769Z,94.54
2022-09-09T23:35:01.926Z,94.73
2022-09-09T23:40:01.650Z,95.18
2022-09-09T23:45:01.448Z,95.34
2022-09-09T23:50:02.088Z,95.28
2022-09-09T23:55:01.328Z,95.51
